Time;durP1;ratioP1;P1;durP2;ratioP2;P2;SDS_P1;SDS_P2;PMS_P1;PMS_P2;Temp;Humidity;BMP_temperature;BMP_pressure;BME280_temperature;BME280_humidity;BME280_pressure;Samples;Min_cycle;Max_cycle;Signal;HPM_P1;HPM_P2
2023/08/14 00:00:26;;;;;;;9.90;8.90;;;;;;;20.82;100.00;99152.70;109614;1251;58940;-75
2023/08/14 00:03:13;;;;;;;9.40;8.50;;;;;;;20.78;100.00;99148.40;109592;1251;72948;-75
2023/08/14 00:05:39;;;;;;;10.50;9.40;;;;;;;20.75;100.00;99148.26;109665;1251;59034;-76
2023/08/14 00:08:06;;;;;;;10.90;9.90;;;;;;;20.72;100.00;99145.80;109632;1251;58941;-75
2023/08/14 00:10:32;;;;;;;9.60;8.60;;;;;;;20.70;100.00;99150.02;109577;1251;65964;-75
2023/08/14 00:12:59;;;;;;;9.50;8.50;;;;;;;20.68;100.00;99151.61;109684;1250;58931;-74
2023/08/14 00:15:25;;;;;;;10.00;9.10;;;;;;;20.66;100.00;99150.96;109632;1251;64083;-74
2023/08/14 00:17:52;;;;;;;9.50;8.70;;;;;;;20.63;100.00;99149.33;109587;1251;59125;-75
2023/08/14 00:20:19;;;;;;;9.80;9.00;;;;;;;20.59;100.00;99150.77;109613;1251;60401;-76
2023/08/14 00:22:46;;;;;;;10.20;9.30;;;;;;;20.55;100.00;99152.88;109644;1251;64820;-75
2023/08/14 00:25:12;;;;;;;9.90;8.90;;;;;;;20.50;100.00;99156.75;109607;1250;59776;-75
2023/08/14 00:27:39;;;;;;;11.00;10.00;;;;;;;20.47;100.00;99160.23;109570;1251;64047;-75
2023/08/14 00:30:06;;;;;;;10.80;9.80;;;;;;;20.44;100.00;99162.30;109561;1251;59047;-75
2023/08/14 00:32:33;;;;;;;12.30;11.00;;;;;;;20.40;100.00;99166.70;109631;1251;59961;-75
2023/08/14 00:35:00;;;;;;;10.80;9.70;;;;;;;20.37;100.00;99165.55;109418;1251;66110;-76
2023/08/14 00:37:46;;;;;;;11.60;10.40;;;;;;;20.34;100.00;99165.46;109420;1251;59093;-76
2023/08/14 00:40:15;;;;;;;11.70;10.60;;;;;;;20.31;100.00;99173.73;109612;1251;62542;-76
2023/08/14 00:42:45;;;;;;;13.30;12.10;;;;;;;20.25;100.00;99181.96;109389;1251;157288;-76
2023/08/14 00:45:12;;;;;;;12.70;11.10;;;;;;;20.16;100.00;99191.36;109520;1251;59066;-76
2023/08/14 00:47:41;;;;;;;12.30;11.20;;;;;;;20.13;100.00;99194.74;109457;1251;64536;-75
2023/08/14 00:50:08;;;;;;;11.80;10.80;;;;;;;20.13;100.00;99196.50;109620;1251;58947;-75
2023/08/14 00:52:39;;;;;;;13.00;11.80;;;;;;;20.15;100.00;99198.52;109585;1251;64092;-74
2023/08/14 00:55:09;;;;;;;12.50;11.50;;;;;;;20.16;100.00;99200.23;109564;1251;59402;-75
2023/08/14 00:57:36;;;;;;;12.90;11.70;;;;;;;20.16;100.00;99197.66;109639;1251;59014;-74
2023/08/14 01:00:06;;;;;;;12.40;11.40;;;;;;;20.16;100.00;99198.91;109589;1251;67206;-75
2023/08/14 01:02:36;;;;;;;12.80;11.60;;;;;;;20.16;100.00;99202.58;109684;1251;59015;-75
2023/08/14 01:05:03;;;;;;;11.40;10.40;;;;;;;20.13;100.00;99209.02;109614;1251;65247;-75
2023/08/14 01:07:29;;;;;;;12.70;10.70;;;;;;;20.07;100.00;99219.92;109438;1251;58974;-75
2023/08/14 01:09:57;;;;;;;10.90;9.80;;;;;;;20.03;100.00;99225.75;109572;1251;59009;-74
2023/08/14 01:12:45;;;;;;;10.80;9.90;;;;;;;20.01;100.00;99226.65;109587;1251;66091;-74
2023/08/14 01:15:20;;;;;;;11.20;10.20;;;;;;;19.99;100.00;99230.48;109657;1251;60385;-75
2023/08/14 01:17:53;;;;;;;11.40;10.30;;;;;;;19.97;100.00;99222.73;109552;1251;65339;-75
2023/08/14 01:20:21;;;;;;;11.50;10.50;;;;;;;19.95;100.00;99218.23;109589;1251;59021;-75
2023/08/14 01:23:25;;;;;;;11.60;10.60;;;;;;;19.92;100.00;99215.63;109647;1251;59054;-75
2023/08/14 01:25:53;;;;;;;11.50;10.40;;;;;;;19.88;100.00;99216.47;109617;1251;67134;-75
2023/08/14 01:28:20;;;;;;;11.40;10.40;;;;;;;19.84;100.00;99213.27;109567;1251;61355;-75
2023/08/14 01:30:47;;;;;;;12.30;11.10;;;;;;;19.82;100.00;99209.31;109606;1251;65328;-75
2023/08/14 01:33:13;;;;;;;11.80;10.60;;;;;;;19.80;100.00;99209.34;109536;1251;58956;-74
2023/08/14 01:35:49;;;;;;;10.80;9.80;;;;;;;19.78;100.00;99210.61;109569;1250;58934;-74
2023/08/14 01:38:25;;;;;;;11.50;10.60;;;;;;;19.74;100.00;99214.96;109519;1252;66124;-76
2023/08/14 01:41:20;;;;;;;11.50;10.60;;;;;;;19.70;100.00;99219.19;109556;1253;60255;-75
2023/08/14 01:43:54;;;;;;;11.60;10.60;;;;;;;19.66;100.00;99220.13;109521;1252;64045;-76
2023/08/14 01:46:23;;;;;;;12.80;11.40;;;;;;;19.63;100.00;99214.67;109495;1252;59346;-75
2023/08/14 01:48:52;;;;;;;13.40;12.20;;;;;;;19.60;100.00;99217.61;109529;1253;59021;-75
2023/08/14 01:51:20;;;;;;;11.60;10.70;;;;;;;19.57;100.00;99220.29;109525;1253;73667;-75
2023/08/14 01:53:47;;;;;;;13.20;12.00;;;;;;;19.55;100.00;99222.46;109520;1252;60302;-75
2023/08/14 01:56:13;;;;;;;13.20;12.00;;;;;;;19.52;100.00;99228.33;109532;1253;64135;-75
2023/08/14 01:58:40;;;;;;;14.20;12.80;;;;;;;19.50;100.00;99232.90;109480;1251;59002;-74
2023/08/14 02:01:07;;;;;;;13.00;11.60;;;;;;;19.47;100.00;99232.66;109559;1252;59076;-75
2023/08/14 02:03:33;;;;;;;14.00;12.30;;;;;;;19.44;100.00;99229.47;109517;1251;66031;-75
2023/08/14 02:06:00;;;;;;;13.10;11.90;;;;;;;19.44;100.00;99223.98;109519;1253;60218;-74
2023/08/14 02:08:26;;;;;;;14.20;12.90;;;;;;;19.43;100.00;99225.97;109552;1252;62928;-75
2023/08/14 02:10:54;;;;;;;14.80;13.50;;;;;;;19.43;100.00;99223.10;109550;1253;59046;-75
2023/08/14 02:13:21;;;;;;;13.40;12.20;;;;;;;19.43;100.00;99223.65;109550;1253;59046;-75
2023/08/14 02:15:48;;;;;;;14.60;13.10;;;;;;;19.44;100.00;99225.37;109539;1253;66026;-75
2023/08/14 02:18:14;;;;;;;16.60;15.30;;;;;;;19.45;100.00;99222.98;109437;1253;60045;-76
2023/08/14 02:20:49;;;;;;;14.50;13.20;;;;;;;19.45;100.00;99224.36;109535;1251;62838;-75
2023/08/14 02:23:15;;;;;;;15.70;14.30;;;;;;;19.46;100.00;99226.95;109542;1251;58969;-75
2023/08/14 02:25:42;;;;;;;16.30;14.90;;;;;;;19.47;100.00;99223.59;109544;1252;59023;-75
2023/08/14 02:28:10;;;;;;;16.60;15.10;;;;;;;19.48;100.00;99222.42;109508;1253;67276;-76
2023/08/14 02:30:43;;;;;;;16.00;14.60;;;;;;;19.48;100.00;99222.21;109534;1253;59007;-75
2023/08/14 02:33:10;;;;;;;16.10;14.80;;;;;;;19.48;100.00;99220.83;109467;1253;64086;-75
2023/08/14 02:35:37;;;;;;;15.00;13.70;;;;;;;19.47;100.00;99222.02;109530;1253;59047;-76
2023/08/14 02:38:06;;;;;;;14.30;13.10;;;;;;;19.47;100.00;99222.77;109566;1253;59004;-76
2023/08/14 02:40:32;;;;;;;17.70;16.10;;;;;;;19.44;100.00;99226.08;109527;1252;64867;-75
2023/08/14 02:43:01;;;;;;;16.60;15.20;;;;;;;19.41;100.00;99227.48;109555;1253;59273;-76
2023/08/14 02:45:28;;;;;;;18.20;16.40;;;;;;;19.39;100.00;99227.14;109549;1253;64119;-75
2023/08/14 02:47:55;;;;;;;14.60;13.30;;;;;;;19.38;100.00;99227.45;109505;1253;58960;-76
2023/08/14 02:50:22;;;;;;;16.30;14.50;;;;;;;19.36;100.00;99231.98;109524;1252;58975;-76
2023/08/14 02:52:49;;;;;;;13.80;12.50;;;;;;;19.32;100.00;99233.77;109503;1251;67142;-76
2023/08/14 02:55:16;;;;;;;15.30;13.20;;;;;;;19.28;100.00;99238.99;109419;1253;59063;-76
2023/08/14 02:57:42;;;;;;;14.90;13.60;;;;;;;19.25;100.00;99238.05;109414;1254;62523;-76
2023/08/14 03:00:09;;;;;;;14.50;13.20;;;;;;;19.22;100.00;99240.92;109541;1252;58950;-76
2023/08/14 03:02:36;;;;;;;14.90;13.60;;;;;;;19.18;100.00;99245.66;109530;1253;59447;-75
2023/08/14 03:05:03;;;;;;;14.60;13.30;;;;;;;19.15;100.00;99243.58;109540;1253;66261;-76
2023/08/14 03:07:30;;;;;;;14.20;12.80;;;;;;;19.14;100.00;99244.41;109602;1252;60119;-75
2023/08/14 03:09:56;;;;;;;15.40;13.70;;;;;;;19.12;100.00;99245.13;109549;1252;64056;-76
2023/08/14 03:12:23;;;;;;;14.20;12.90;;;;;;;19.10;100.00;99246.55;109517;1252;59251;-75
2023/08/14 03:14:49;;;;;;;13.50;12.30;;;;;;;19.07;100.00;99247.77;109587;1251;58944;-76
2023/08/14 03:17:16;;;;;;;13.70;12.60;;;;;;;19.04;100.00;99247.11;109555;1251;64755;-76
2023/08/14 03:19:42;;;;;;;14.70;13.40;;;;;;;19.02;100.00;99252.05;109506;1253;68743;-76
2023/08/14 03:22:09;;;;;;;15.20;13.90;;;;;;;19.00;100.00;99250.05;109524;1253;65214;-76
2023/08/14 03:24:35;;;;;;;14.50;13.20;;;;;;;19.00;100.00;99247.20;109529;1252;59022;-76
2023/08/14 03:27:02;;;;;;;15.20;14.00;;;;;;;19.02;100.00;99247.77;109533;1251;59091;-76
2023/08/14 03:29:29;;;;;;;14.40;13.10;;;;;;;19.03;100.00;99251.27;109503;1253;64684;-76
2023/08/14 03:31:56;;;;;;;14.10;12.90;;;;;;;19.02;100.00;99255.41;109567;1252;61350;-75
2023/08/14 03:34:23;;;;;;;13.80;12.60;;;;;;;19.01;100.00;99257.14;109522;1253;64020;-76
2023/08/14 03:36:49;;;;;;;15.40;14.00;;;;;;;19.03;100.00;99264.23;109511;1252;59176;-76
2023/08/14 03:39:16;;;;;;;14.70;13.10;;;;;;;19.03;100.00;99260.58;109555;1252;58864;-76
2023/08/14 03:41:44;;;;;;;13.20;12.00;;;;;;;19.03;100.00;99263.26;109560;1252;67372;-76
2023/08/14 03:44:10;;;;;;;14.60;13.20;;;;;;;19.05;100.00;99265.48;109571;1252;60111;-75
2023/08/14 03:46:37;;;;;;;14.00;12.90;;;;;;;19.05;100.00;99263.42;109520;1252;62744;-76
2023/08/14 03:49:05;;;;;;;15.50;14.20;;;;;;;19.07;100.00;99261.84;109485;1253;58971;-75
2023/08/14 03:51:31;;;;;;;15.90;14.50;;;;;;;19.07;100.00;99262.99;109536;1253;58969;-76
2023/08/14 03:53:58;;;;;;;15.90;14.60;;;;;;;19.10;100.00;99269.61;109544;1253;66123;-76
2023/08/14 03:56:24;;;;;;;16.40;14.90;;;;;;;19.13;100.00;99267.35;109547;1252;59854;-76
2023/08/14 03:58:51;;;;;;;16.40;15.00;;;;;;;19.19;100.00;99265.02;109527;1252;65256;-76
2023/08/14 04:01:17;;;;;;;15.20;13.90;;;;;;;19.33;100.00;99268.05;109538;1252;59004;-76
2023/08/14 04:03:44;;;;;;;15.20;13.90;;;;;;;19.48;100.00;99265.49;109509;1253;58874;-75
2023/08/14 04:06:10;;;;;;;15.30;13.80;;;;;;;19.57;100.00;99264.80;109534;1251;66025;-76
2023/08/14 04:08:37;;;;;;;14.70;13.40;;;;;;;19.74;100.00;99260.39;109575;1251;61185;-76
2023/08/14 04:11:04;;;;;;;13.60;12.20;;;;;;;20.32;100.00;99254.54;109349;1253;63024;-76
2023/08/14 04:13:31;;;;;;;12.80;11.70;;;;;;;20.75;100.00;99255.05;109532;1253;59049;-76
2023/08/14 04:16:00;;;;;;;13.20;12.00;;;;;;;20.67;100.00;99257.90;109543;1252;59065;-76
2023/08/14 04:18:27;;;;;;;11.60;10.50;;;;;;;20.52;100.00;99260.73;109511;1251;67041;-76
2023/08/14 04:20:54;;;;;;;12.40;11.20;;;;;;;20.43;100.00;99260.88;109523;1252;59401;-75
2023/08/14 04:23:22;;;;;;;11.40;10.40;;;;;;;20.36;100.00;99263.43;109355;1252;65380;-75
2023/08/14 04:25:50;;;;;;;13.60;11.30;;;;;;;20.33;100.00;99260.14;109538;1253;59076;-75
2023/08/14 04:28:16;;;;;;;12.60;11.70;;;;;;;20.35;100.00;99263.34;109519;1252;58879;-75
2023/08/14 04:30:43;;;;;;;14.10;12.80;;;;;;;20.31;100.00;99272.84;109507;1252;66066;-75
2023/08/14 04:33:10;;;;;;;14.50;13.10;;;;;;;20.34;100.00;99273.61;109568;1252;61202;-75
2023/08/14 04:35:39;;;;;;;14.30;13.10;;;;;;;20.68;100.00;99278.77;109511;1252;62713;-75
2023/08/14 04:38:06;;;;;;;14.00;12.70;;;;;;;21.62;100.00;99277.64;109527;1252;59420;-75
2023/08/14 04:40:33;;;;;;;13.60;12.30;;;;;;;22.45;100.00;99277.02;109563;1252;59005;-75
2023/08/14 04:42:59;;;;;;;14.10;11.70;;;;;;;23.09;100.00;99279.39;109561;1253;66011;-76
2023/08/14 04:45:26;;;;;;;12.50;11.60;;;;;;;23.62;100.00;99274.85;109537;1252;59032;-76
2023/08/14 04:47:52;;;;;;;11.70;10.80;;;;;;;24.31;100.00;99271.80;109510;1252;62736;-76
2023/08/14 04:50:19;;;;;;;12.40;11.20;;;;;;;24.99;100.00;99272.77;109498;1252;59195;-76
2023/08/14 04:52:46;;;;;;;12.10;10.90;;;;;;;25.56;100.00;99276.77;109386;1252;59023;-76
2023/08/14 04:55:12;;;;;;;11.80;10.80;;;;;;;26.10;100.00;99284.88;109490;1253;67216;-75
2023/08/14 04:57:39;;;;;;;12.00;10.70;;;;;;;26.66;100.00;99287.71;109508;1253;67810;-75
2023/08/14 05:00:06;;;;;;;10.90;9.80;;;;;;;27.12;100.00;99292.69;109428;1252;62470;-75
2023/08/14 05:02:33;;;;;;;11.40;10.40;;;;;;;27.58;100.00;99291.51;109357;1252;58989;-75
2023/08/14 05:05:00;;;;;;;11.10;10.20;;;;;;;27.98;100.00;99285.95;109442;1251;59021;-76
2023/08/14 05:07:26;;;;;;;10.20;9.40;;;;;;;28.17;100.00;99285.14;109515;1252;65959;-76
2023/08/14 05:09:53;;;;;;;11.70;10.70;;;;;;;28.15;100.00;99286.58;109483;1253;61305;-76
2023/08/14 05:12:19;;;;;;;11.50;10.20;;;;;;;28.24;100.00;99291.01;109543;1252;63780;-76
2023/08/14 05:14:46;;;;;;;10.40;9.40;;;;;;;28.43;100.00;99290.91;109515;1252;59120;-76
2023/08/14 05:17:12;;;;;;;10.80;9.60;;;;;;;28.63;100.00;99289.48;109536;1252;59472;-76
2023/08/14 05:19:39;;;;;;;9.50;8.60;;;;;;;28.66;100.00;99286.48;109548;1253;64886;-76
2023/08/14 05:22:06;;;;;;;10.50;9.40;;;;;;;28.74;100.00;99286.13;109569;1252;60185;-76
2023/08/14 05:24:32;;;;;;;9.70;8.80;;;;;;;28.85;100.00;99285.68;109290;1252;62749;-76
2023/08/14 05:26:59;;;;;;;11.60;8.70;;;;;;;29.08;100.00;99286.15;109527;1253;59288;-76
2023/08/14 05:29:25;;;;;;;9.40;8.60;;;;;;;29.21;100.00;99285.83;109562;1252;59161;-76
2023/08/14 05:31:52;;;;;;;9.90;9.00;;;;;;;29.16;100.00;99284.66;109599;1252;66063;-76
2023/08/14 05:34:19;;;;;;;9.70;8.70;;;;;;;29.23;100.00;99281.13;109538;1252;61448;-76
2023/08/14 05:36:45;;;;;;;9.70;8.40;;;;;;;29.62;100.00;99283.80;109543;1253;62925;-76
2023/08/14 05:39:12;;;;;;;9.50;8.70;;;;;;;30.09;100.00;99282.52;109527;1251;59302;-76
2023/08/14 05:41:38;;;;;;;10.30;9.00;;;;;;;30.42;100.00;99285.51;109504;1252;59001;-75
2023/08/14 05:44:05;;;;;;;10.20;8.80;;;;;;;30.67;100.00;99285.83;109561;1253;66136;-76
2023/08/14 05:46:32;;;;;;;8.20;7.50;;;;;;;30.91;100.00;99281.05;109542;1253;60137;-77
2023/08/14 05:48:59;;;;;;;8.30;7.50;;;;;;;31.01;100.00;99284.16;109543;1253;65202;-76
2023/08/14 05:51:25;;;;;;;8.60;7.80;;;;;;;31.08;100.00;99286.91;109524;1253;59096;-76
2023/08/14 05:53:52;;;;;;;8.30;7.50;;;;;;;31.23;100.00;99289.13;109570;1252;59111;-76
2023/08/14 05:56:18;;;;;;;9.00;7.60;;;;;;;31.38;100.00;99292.77;109527;1252;67183;-76
2023/08/14 05:58:45;;;;;;;8.30;7.40;;;;;;;31.34;100.00;99296.16;109498;1253;60299;-76
2023/08/14 06:01:12;;;;;;;7.10;6.50;;;;;;;31.12;100.00;99300.94;109492;1251;62836;-76
2023/08/14 06:03:39;;;;;;;7.20;6.50;;;;;;;30.81;100.00;99304.98;109526;1251;59019;-76
2023/08/14 06:06:06;;;;;;;8.20;7.30;;;;;;;30.52;100.00;99302.42;109376;1253;59026;-76
2023/08/14 06:08:32;;;;;;;7.40;6.70;;;;;;;30.17;100.00;99306.02;109558;1252;64649;-76
2023/08/14 06:10:59;;;;;;;8.30;7.10;;;;;;;30.10;100.00;99306.06;109535;1252;60338;-74
2023/08/14 06:13:25;;;;;;;8.10;7.40;;;;;;;30.33;100.00;99301.60;109532;1252;62643;-74
2023/08/14 06:15:52;;;;;;;8.40;7.70;;;;;;;30.52;100.00;99301.67;109489;1252;59270;-74
2023/08/14 06:18:19;;;;;;;9.00;8.10;;;;;;;30.41;100.00;99301.65;109586;1251;59033;-74
2023/08/14 06:20:45;;;;;;;8.60;7.90;;;;;;;30.25;100.00;99301.97;109554;1253;64504;-73
2023/08/14 06:23:12;;;;;;;8.70;7.90;;;;;;;30.36;100.00;99308.02;109563;1253;61469;-74
2023/08/14 06:25:38;;;;;;;9.10;8.40;;;;;;;30.28;100.00;99308.30;109546;1252;64869;-74
2023/08/14 06:28:05;;;;;;;8.90;7.90;;;;;;;30.11;100.00;99312.70;109528;1252;59061;-75
2023/08/14 06:30:32;;;;;;;8.30;7.50;;;;;;;30.18;100.00;99313.20;109554;1252;58937;-74
2023/08/14 06:32:59;;;;;;;8.70;8.00;;;;;;;30.42;100.00;99313.77;109547;1251;67195;-74
2023/08/14 06:35:25;;;;;;;10.30;9.30;;;;;;;30.69;100.00;99313.16;109301;1252;59041;-74
2023/08/14 06:37:52;;;;;;;8.90;8.00;;;;;;;30.96;100.00;99312.06;109564;1252;64080;-75
2023/08/14 06:40:19;;;;;;;8.50;7.80;;;;;;;31.26;100.00;99310.70;109569;1252;58945;-75
2023/08/14 06:42:45;;;;;;;8.30;7.40;;;;;;;31.61;99.96;99314.77;109570;1253;59047;-75
2023/08/14 06:45:12;;;;;;;7.00;6.40;;;;;;;31.89;98.30;99315.65;109556;1253;65730;-75
2023/08/14 06:47:45;;;;;;;7.80;6.70;;;;;;;32.19;96.42;99314.00;109537;1252;60119;-75
2023/08/14 06:50:13;;;;;;;7.10;6.40;;;;;;;32.41;95.43;99315.14;109522;1252;62591;-74
2023/08/14 06:52:40;;;;;;;6.30;5.90;;;;;;;32.73;94.13;99316.87;109302;1256;59033;-75
2023/08/14 06:55:07;;;;;;;6.10;5.60;;;;;;;32.91;92.02;99317.73;109573;1253;58963;-75
2023/08/14 06:57:34;;;;;;;6.20;5.60;;;;;;;33.01;90.68;99309.37;109518;1252;65814;-75
2023/08/14 07:00:12;;;;;;;5.50;5.10;;;;;;;32.98;89.52;99307.25;109534;1254;58999;-75
2023/08/14 07:02:40;;;;;;;5.10;4.70;;;;;;;32.81;88.27;99310.48;109540;1252;62554;-74
2023/08/14 07:05:09;;;;;;;5.20;4.70;;;;;;;32.55;88.26;99313.18;109418;1254;59053;-75
2023/08/14 07:07:35;;;;;;;4.40;4.00;;;;;;;32.41;87.66;99312.08;109137;1254;59023;-74
2023/08/14 07:10:02;;;;;;;4.90;4.50;;;;;;;32.27;87.81;99312.23;109370;1254;66022;-74
2023/08/14 07:12:29;;;;;;;4.20;3.90;;;;;;;32.09;87.30;99317.20;109163;1254;60365;-75
2023/08/14 07:14:55;;;;;;;4.30;3.90;;;;;;;31.82;87.27;99321.20;109366;1254;62673;-75
2023/08/14 07:17:22;;;;;;;4.90;4.40;;;;;;;31.53;86.68;99323.36;109289;1254;59212;-74
2023/08/14 07:19:48;;;;;;;4.30;3.80;;;;;;;31.28;87.18;99324.91;109332;1254;58971;-75
2023/08/14 07:22:15;;;;;;;4.80;4.10;;;;;;;31.08;87.44;99324.74;109347;1253;66094;-75
2023/08/14 07:24:41;;;;;;;5.60;4.50;;;;;;;30.92;87.59;99326.39;109391;1253;60192;-75
2023/08/14 07:27:08;;;;;;;4.40;4.00;;;;;;;30.79;87.99;99325.91;109393;1254;62819;-75
2023/08/14 07:29:35;;;;;;;5.70;4.10;;;;;;;30.76;88.84;99326.34;109352;1254;59075;-74
2023/08/14 07:32:01;;;;;;;5.30;4.90;;;;;;;30.86;89.19;99327.23;109412;1254;59076;-74
2023/08/14 07:34:28;;;;;;;4.80;4.40;;;;;;;31.01;89.17;99328.36;109431;1253;67258;-75
2023/08/14 07:36:55;;;;;;;6.60;4.80;;;;;;;31.04;87.85;99327.46;109518;1252;61254;-75
2023/08/14 07:39:22;;;;;;;5.80;5.20;;;;;;;31.04;87.35;99327.04;109330;1254;64018;-75
2023/08/14 07:41:48;;;;;;;5.30;4.40;;;;;;;31.09;87.12;99326.97;109552;1252;58969;-74
2023/08/14 07:44:15;;;;;;;5.90;4.60;;;;;;;31.07;86.26;99327.34;109561;1251;59046;-74
2023/08/14 07:46:41;;;;;;;6.80;4.80;;;;;;;30.85;86.60;99329.19;109562;1252;64959;-76
2023/08/14 07:49:08;;;;;;;4.80;4.40;;;;;;;30.62;86.48;99326.71;109566;1251;59071;-75
2023/08/14 07:51:34;;;;;;;6.70;5.20;;;;;;;30.48;86.49;99327.94;109522;1253;71359;-75
2023/08/14 07:54:01;;;;;;;4.90;4.50;;;;;;;30.48;87.44;99328.70;109538;1252;58995;-75
2023/08/14 07:56:27;;;;;;;3.90;3.60;;;;;;;30.55;88.08;99328.13;109539;1253;59033;-74
2023/08/14 07:58:54;;;;;;;4.50;4.10;;;;;;;30.67;87.53;99329.30;109548;1252;67208;-76
2023/08/14 08:01:20;;;;;;;4.70;4.30;;;;;;;30.78;88.08;99329.13;109589;1253;59888;-74
2023/08/14 08:03:47;;;;;;;4.70;4.10;;;;;;;30.87;88.11;99327.93;109510;1251;63676;-75
2023/08/14 08:06:13;;;;;;;4.50;4.10;;;;;;;30.91;87.07;99326.05;109544;1255;59074;-75
2023/08/14 08:08:40;;;;;;;4.40;4.00;;;;;;;30.91;87.44;99326.65;109528;1252;59009;-75
2023/08/14 08:11:06;;;;;;;3.40;3.00;;;;;;;30.88;85.41;99325.33;109557;1252;67217;-74
2023/08/14 08:13:33;;;;;;;3.70;3.30;;;;;;;30.97;85.61;99325.15;109515;1251;59280;-75
2023/08/14 08:16:00;;;;;;;3.60;3.30;;;;;;;31.10;85.55;99326.45;109331;1253;64114;-75
2023/08/14 08:18:26;;;;;;;3.20;3.00;;;;;;;31.11;83.67;99327.80;109529;1252;58929;-75
2023/08/14 08:20:53;;;;;;;3.30;3.00;;;;;;;31.16;83.55;99328.59;109444;1253;58871;-75
2023/08/14 08:23:20;;;;;;;2.90;2.70;;;;;;;31.29;83.14;99326.75;109536;1252;66960;-75
2023/08/14 08:25:46;;;;;;;4.10;2.70;;;;;;;31.46;82.25;99326.29;109549;1252;61459;-75
2023/08/14 08:28:13;;;;;;;3.00;2.70;;;;;;;31.60;81.00;99323.05;109497;1253;62896;-75
2023/08/14 08:30:40;;;;;;;3.50;3.20;;;;;;;31.69;81.00;99322.09;109361;1252;59060;-75
2023/08/14 08:33:06;;;;;;;3.20;3.00;;;;;;;31.77;80.48;99323.27;109534;1253;58917;-75
2023/08/14 08:35:33;;;;;;;3.40;3.20;;;;;;;31.82;78.91;99320.65;109579;1253;64509;-75
2023/08/14 08:37:59;;;;;;;2.90;2.60;;;;;;;31.80;76.30;99324.16;109506;1254;61434;-74
2023/08/14 08:40:26;;;;;;;3.70;2.90;;;;;;;31.74;76.60;99321.31;109568;1252;63834;-74
2023/08/14 08:42:53;;;;;;;3.50;3.20;;;;;;;31.55;75.90;99323.47;109519;1252;58896;-75
2023/08/14 08:45:22;;;;;;;3.10;2.80;;;;;;;31.42;76.43;99322.36;109513;1251;58857;-76
2023/08/14 08:47:52;;;;;;;3.60;3.20;;;;;;;31.45;76.84;99321.47;109530;1253;67313;-74
2023/08/14 08:50:19;;;;;;;3.10;2.90;;;;;;;31.52;76.63;99321.42;109524;1252;60119;-74
2023/08/14 08:52:46;;;;;;;3.10;2.90;;;;;;;31.58;77.46;99323.43;109522;1254;62500;-74
2023/08/14 08:55:13;;;;;;;3.90;3.60;;;;;;;31.63;76.72;99323.02;109334;1252;59002;-74
2023/08/14 08:57:40;;;;;;;4.80;3.20;;;;;;;31.61;76.34;99319.23;109525;1252;58883;-74
2023/08/14 09:00:07;;;;;;;3.20;3.00;;;;;;;31.55;77.07;99315.36;109517;1251;75722;-76
2023/08/14 09:02:35;;;;;;;7.20;3.40;;;;;;;-32.27;45.59;59589.91;108018;1252;1001977;-75
2023/08/14 09:05:01;;;;;;;3.10;2.90;;;;;;;-128.00;-1.00;-1.00;105736;1252;1059466;-75
2023/08/14 09:07:28;;;;;;;3.50;3.10;;;;;;;-128.00;-1.00;-1.00;105727;1254;1004316;-75
2023/08/14 09:09:54;;;;;;;3.20;2.90;;;;;;;-128.00;-1.00;-1.00;105579;1254;1003582;-75
2023/08/14 09:12:21;;;;;;;3.70;3.50;;;;;;;-128.00;-1.00;-1.00;105741;1252;1004000;-75
2023/08/14 09:15:04;;;;;;;3.20;2.90;;;;;;;-128.00;-1.00;-1.00;105790;1252;1004409;-75
2023/08/14 09:17:31;;;;;;;3.30;2.90;;;;;;;-128.00;-1.00;-1.00;105705;1252;1059713;-74
2023/08/14 09:19:57;;;;;;;3.50;2.90;;;;;;;-128.00;-1.00;-1.00;105707;1252;1003299;-75
2023/08/14 09:22:28;;;;;;;3.40;3.10;;;;;;;-128.00;-1.00;-1.00;105730;1253;1004337;-76
2023/08/14 09:24:59;;;;;;;3.80;3.20;;;;;;;-128.00;-1.00;-1.00;105727;1256;1061559;-76
2023/08/14 09:27:26;;;;;;;3.60;3.10;;;;;;;-128.00;-1.00;-1.00;105728;1254;1055265;-75
2023/08/14 09:29:54;;;;;;;3.40;3.10;;;;;;;-128.00;-1.00;-1.00;105566;1254;1004001;-75
2023/08/14 09:32:24;;;;;;;5.30;3.30;;;;;;;-128.00;-1.00;-1.00;105718;1252;1004656;-75
2023/08/14 09:35:02;;;;;;;4.70;3.30;;;;;;;-128.00;-1.00;-1.00;105759;1253;1046549;-75
2023/08/14 09:37:29;;;;;;;3.50;3.10;;;;;;;-128.00;-1.00;-1.00;105750;1252;1061727;-75
2023/08/14 09:40:20;;;;;;;3.20;2.90;;;;;;;-128.00;-1.00;-1.00;105669;1254;1004151;-75
2023/08/14 09:42:48;;;;;;;6.80;3.30;;;;;;;-128.00;-1.00;-1.00;105688;1253;1059474;-75
2023/08/14 09:45:17;;;;;;;3.20;2.90;;;;;;;-128.00;-1.00;-1.00;105677;1252;1045780;-75
2023/08/14 09:47:47;;;;;;;4.40;3.70;;;;;;;-128.00;-1.00;-1.00;105705;1252;1048019;-75
2023/08/14 09:50:13;;;;;;;3.90;3.60;;;;;;;-128.00;-1.00;-1.00;105785;1252;1062012;-74
2023/08/14 09:52:40;;;;;;;3.60;3.20;;;;;;;-128.00;-1.00;-1.00;105742;1253;1004652;-74
2023/08/14 09:55:08;;;;;;;3.80;3.50;;;;;;;-128.00;-1.00;-1.00;105787;1252;1004347;-74
2023/08/14 09:57:34;;;;;;;5.20;2.90;;;;;;;-128.00;-1.00;-1.00;105780;1252;1004729;-74
2023/08/14 10:00:01;;;;;;;18.40;8.80;;;;;;;-128.00;-1.00;-1.00;105763;1252;1005137;-76
2023/08/14 10:02:31;;;;;;;2.70;2.50;;;;;;;-128.00;-1.00;-1.00;105798;1252;1004403;-76
2023/08/14 10:04:59;;;;;;;;;;;;;;;-128.00;-1.00;-1.00;105756;1253;1055072;-75
2023/08/14 10:07:26;;;;;;;4.20;2.70;;;;;;;-128.00;-1.00;-1.00;105766;1252;1003868;-75
2023/08/14 10:09:59;;;;;;;3.40;3.00;;;;;;;-128.00;-1.00;-1.00;105782;1252;1004960;-75
2023/08/14 10:12:29;;;;;;;2.90;2.60;;;;;;;-128.00;-1.00;-1.00;105770;1252;1047524;-75
2023/08/14 10:15:04;;;;;;;2.50;2.40;;;;;;;-128.00;-1.00;-1.00;105771;1252;1061613;-76
2023/08/14 10:17:34;;;;;;;4.90;2.60;;;;;;;-128.00;-1.00;-1.00;105786;1253;1055435;-75
2023/08/14 10:20:03;;;;;;;3.90;3.00;;;;;;;-128.00;-1.00;-1.00;105752;1251;1059496;-76
2023/08/14 10:22:33;;;;;;;4.10;2.90;;;;;;;-128.00;-1.00;-1.00;105762;1252;1044278;-76
2023/08/14 10:25:03;;;;;;;4.70;2.90;;;;;;;-128.00;-1.00;-1.00;105789;1252;1048449;-75
2023/08/14 10:27:31;;;;;;;5.10;2.90;;;;;;;-128.00;-1.00;-1.00;105549;1254;1062335;-76
2023/08/14 10:29:59;;;;;;;3.80;3.10;;;;;;;-128.00;-1.00;-1.00;105736;1253;1004609;-75
2023/08/14 10:32:27;;;;;;;2.80;2.60;;;;;;;-128.00;-1.00;-1.00;105744;1252;1004115;-74
2023/08/14 10:34:55;;;;;;;3.30;3.00;;;;;;;-128.00;-1.00;-1.00;105540;1252;1003830;-74
2023/08/14 10:37:40;;;;;;;3.20;3.00;;;;;;;-128.00;-1.00;-1.00;105748;1254;1046749;-75
2023/08/14 10:40:22;;;;;;;4.40;2.90;;;;;;;-128.00;-1.00;-1.00;105759;1253;1062156;-75
2023/08/14 10:42:54;;;;;;;4.80;3.40;;;;;;;-128.00;-1.00;-1.00;105823;1252;1055060;-74
2023/08/14 10:45:23;;;;;;;3.70;3.10;;;;;;;-128.00;-1.00;-1.00;105693;1253;1060401;-74
2023/08/14 10:47:50;;;;;;;3.50;3.00;;;;;;;-128.00;-1.00;-1.00;105744;1252;1044252;-75
2023/08/14 10:50:22;;;;;;;3.00;2.70;;;;;;;-128.00;-1.00;-1.00;105773;1254;1005442;-75
2023/08/14 10:52:52;;;;;;;2.80;2.60;;;;;;;-128.00;-1.00;-1.00;105784;1253;1061130;-75
2023/08/14 10:55:24;;;;;;;2.70;2.50;;;;;;;-128.00;-1.00;-1.00;105808;1253;1054712;-75
2023/08/14 10:57:53;;;;;;;3.50;3.00;;;;;;;-128.00;-1.00;-1.00;105705;1252;1059673;-75
2023/08/14 11:00:23;;;;;;;2.70;2.50;;;;;;;-128.00;-1.00;-1.00;105685;1252;1045311;-74
2023/08/14 11:02:51;;;;;;;4.60;3.10;;;;;;;-128.00;-1.00;-1.00;105680;1251;1047145;-75
2023/08/14 11:05:18;;;;;;;2.60;2.40;;;;;;;-128.00;-1.00;-1.00;105846;1255;1060604;-75
2023/08/14 11:07:59;;;;;;;2.80;2.50;;;;;;;-128.00;-1.00;-1.00;105810;1251;1004436;-75
2023/08/14 11:10:26;;;;;;;2.90;2.70;;;;;;;-128.00;-1.00;-1.00;105780;1251;1059261;-75
2023/08/14 11:12:55;;;;;;;2.80;2.60;;;;;;;-128.00;-1.00;-1.00;105816;1251;1004597;-75
2023/08/14 11:15:23;;;;;;;5.10;3.10;;;;;;;-128.00;-1.00;-1.00;105849;1251;1046878;-75